Almo, Kentucky
Current Conditions -  °F | °C
As of 10:15 PM on Saturday 25 Oct 2014 (Local Time) from KCEY Reporting Station
Few Clouds Few Clouds  
Wind Chill: 61°   Ceiling: Unl
Heat Index: 61°   Visibility: 10mi
Dew Point: 59°   Wind: 3mph
Humidity: 94%   Direction: 230°SW
Pressure: 30.02"   Gusts: NA
Location:  36.69°N, 88.28°W
Report Text: KCEY 260315Z AUTO 23003KT 10SM FEW024 16/15 A3002 RMK AO1
Loading
Personal Weather Stations






























Interactive Weather Map
Tropical Storm Tracking
New forecast layout! Learn more

10-Day Weather Forecast

Advertisements
Track Severe Weather on mobile